Time;durP1;ratioP1;P1;durP2;ratioP2;P2;SDS_P1;SDS_P2;PMS_P1;PMS_P2;Temp;Humidity;BMP_temperature;BMP_pressure;BME280_temperature;BME280_humidity;BME280_pressure;Samples;Min_cycle;Max_cycle;Signal;HPM_P1;HPM_P2
2023/08/02 00:00:34;;;;;;;;;;;17.00;99.90;;;;;;8398195;28;19924;-70
2023/08/02 00:04:36;;;;;;;;;;;17.00;99.90;;;;;;8415734;28;19929;-70
2023/08/02 00:08:37;;;;;;;;;;;17.00;99.90;;;;;;8423130;28;20027;-70
2023/08/02 00:12:39;;;;;;;;;;;16.90;99.90;;;;;;8431975;28;19924;-70
2023/08/02 00:16:41;;;;;;;;;;;17.00;99.90;;;;;;8423547;28;19939;-70
2023/08/02 00:20:44;;;;;;;;;;;17.00;99.90;;;;;;8407029;28;19938;-70
2023/08/02 00:24:46;;;;;;;;;;;17.00;99.90;;;;;;8407650;28;19932;-70
2023/08/02 00:28:47;;;;;;;;;;;17.00;99.90;;;;;;8399560;28;20404;-70
2023/08/02 00:32:49;;;;;;;;;;;17.00;99.90;;;;;;8422176;28;20322;-70
2023/08/02 00:36:51;;;;;;;;;;;17.00;99.90;;;;;;8409400;28;19924;-70
2023/08/02 00:40:52;;;;;;;;;;;17.00;99.90;;;;;;8426858;28;19924;-70
2023/08/02 00:44:54;;;;;;;;;;;17.00;99.90;;;;;;8427689;28;19924;-70
2023/08/02 00:48:56;;;;;;;;;;;17.00;99.90;;;;;;8429146;28;19924;-70
2023/08/02 00:52:58;;;;;;;;;;;17.00;99.90;;;;;;8421902;28;19924;-70
2023/08/02 01:07:11;;;;;;;;;;;16.90;99.90;;;;;;8422266;28;20021;-70
2023/08/02 01:11:12;;;;;;;;;;;16.90;99.90;;;;;;8427247;28;19982;-70
2023/08/02 01:15:14;;;;;;;;;;;16.90;99.90;;;;;;8425887;28;19928;-70
2023/08/02 01:19:19;;;;;;;;;;;16.90;99.90;;;;;;8428193;28;20441;-70
2023/08/02 01:23:21;;;;;;;;;;;16.90;99.90;;;;;;8397592;28;19978;-70
2023/08/02 01:27:23;;;;;;;;;;;16.90;99.90;;;;;;8418946;28;20049;-70
2023/08/02 01:31:26;;;;;;;;;;;16.80;99.90;;;;;;8427969;28;19989;-70
2023/08/02 01:35:28;;;;;;;;;;;16.80;99.90;;;;;;8398337;28;19935;-70
2023/08/02 01:39:29;;;;;;;;;;;16.80;99.90;;;;;;8394654;28;19925;-70
2023/08/02 01:43:31;;;;;;;;;;;16.80;99.90;;;;;;8418763;28;19924;-70
2023/08/02 01:47:32;;;;;;;;;;;16.80;99.90;;;;;;8422940;28;19924;-70
2023/08/02 01:51:34;;;;;;;;;;;16.70;99.90;;;;;;8402089;28;19928;-70
2023/08/02 01:55:36;;;;;;;;;;;16.70;99.90;;;;;;8424990;28;19924;-70
2023/08/02 01:59:37;;;;;;;;;;;16.70;99.90;;;;;;8426349;28;19925;-70
2023/08/02 02:03:39;;;;;;;;;;;16.60;99.90;;;;;;8403435;28;20376;-70
2023/08/02 02:07:41;;;;;;;;;;;16.60;99.90;;;;;;8409316;28;19930;-70
2023/08/02 02:11:42;;;;;;;;;;;16.60;99.90;;;;;;8422120;28;19939;-70
2023/08/02 02:15:44;;;;;;;;;;;16.60;99.90;;;;;;8418476;28;19924;-70
2023/08/02 02:19:46;;;;;;;;;;;16.50;99.90;;;;;;8423527;28;19928;-70
2023/08/02 02:23:47;;;;;;;;;;;16.50;99.90;;;;;;8416049;28;19935;-70
2023/08/02 02:27:49;;;;;;;;;;;16.50;99.90;;;;;;8407152;28;19924;-70
2023/08/02 02:31:51;;;;;;;;;;;16.50;99.90;;;;;;8407245;28;19934;-70
2023/08/02 02:35:52;;;;;;;;;;;16.50;99.90;;;;;;8396929;28;19925;-70
2023/08/02 02:39:54;;;;;;;;;;;16.50;99.90;;;;;;8416365;28;19946;-70
2023/08/02 02:43:56;;;;;;;;;;;16.40;99.90;;;;;;8404111;28;19974;-70
2023/08/02 02:47:57;;;;;;;;;;;16.50;99.90;;;;;;8421333;28;19924;-70
2023/08/02 02:51:59;;;;;;;;;;;16.50;99.90;;;;;;8422673;28;19971;-70
2023/08/02 02:56:01;;;;;;;;;;;16.50;99.90;;;;;;8408605;28;19970;-70
2023/08/02 03:00:03;;;;;;;;;;;16.40;99.90;;;;;;8407117;28;19978;-70
2023/08/02 03:04:04;;;;;;;;;;;16.40;99.90;;;;;;8414532;28;19931;-70
2023/08/02 03:08:06;;;;;;;;;;;16.40;99.90;;;;;;8400462;28;19924;-70
2023/08/02 03:12:08;;;;;;;;;;;16.40;99.90;;;;;;8422096;28;19924;-70
2023/08/02 03:16:10;;;;;;;;;;;16.40;99.90;;;;;;8420065;28;20325;-70
2023/08/02 03:20:11;;;;;;;;;;;16.40;99.90;;;;;;8424780;28;20303;-70
2023/08/02 03:24:13;;;;;;;;;;;16.40;99.90;;;;;;8403130;28;19931;-70
2023/08/02 03:28:15;;;;;;;;;;;16.40;99.90;;;;;;8415489;28;20033;-70
2023/08/02 03:32:16;;;;;;;;;;;16.40;99.90;;;;;;8406898;28;19927;-70
2023/08/02 03:36:18;;;;;;;;;;;16.40;99.90;;;;;;8414948;28;19927;-70
2023/08/02 03:40:20;;;;;;;;;;;16.40;99.90;;;;;;8418156;28;19947;-70
2023/08/02 03:44:22;;;;;;;;;;;16.40;99.90;;;;;;8418706;28;19924;-70
2023/08/02 03:48:25;;;;;;;;;;;16.40;99.90;;;;;;8416209;28;20391;-70
2023/08/02 03:57:30;;;;;;;;;;;16.40;99.90;;;;;;8414364;28;20403;-70
2023/08/02 04:01:31;;;;;;;;;;;16.40;99.90;;;;;;8425370;28;19958;-70
2023/08/02 04:05:33;;;;;;;;;;;16.40;99.90;;;;;;8404654;28;20418;-69
2023/08/02 04:09:35;;;;;;;;;;;16.40;99.90;;;;;;8425321;28;19970;-70
2023/08/02 04:13:36;;;;;;;;;;;16.40;99.90;;;;;;8422442;28;20300;-70
2023/08/02 04:17:38;;;;;;;;;;;16.40;99.90;;;;;;8421830;28;19981;-70
2023/08/02 04:21:40;;;;;;;;;;;16.40;99.90;;;;;;8424647;28;19929;-70
2023/08/02 04:25:41;;;;;;;;;;;16.40;99.90;;;;;;8420871;28;20345;-70
2023/08/02 04:29:43;;;;;;;;;;;16.50;99.90;;;;;;8426572;28;19977;-70
2023/08/02 04:33:45;;;;;;;;;;;16.50;99.90;;;;;;8411349;28;20376;-70
2023/08/02 04:37:46;;;;;;;;;;;16.50;99.90;;;;;;8411592;28;19928;-70
2023/08/02 04:41:54;;;;;;;;;;;16.50;99.90;;;;;;8429096;28;19935;-70
2023/08/02 04:45:56;;;;;;;;;;;16.50;99.90;;;;;;8424960;28;20307;-70
2023/08/02 04:49:58;;;;;;;;;;;16.50;99.90;;;;;;8408117;28;19927;-70
2023/08/02 04:53:59;;;;;;;;;;;16.50;99.90;;;;;;8424995;28;19924;-70
2023/08/02 04:58:01;;;;;;;;;;;16.50;99.90;;;;;;8427200;28;19928;-70
2023/08/02 05:02:03;;;;;;;;;;;16.50;99.90;;;;;;8427043;28;20400;-71
2023/08/02 05:06:05;;;;;;;;;;;16.50;99.90;;;;;;8405954;28;19924;-71
2023/08/02 05:10:07;;;;;;;;;;;16.50;99.90;;;;;;8416237;28;19973;-70
2023/08/02 05:14:09;;;;;;;;;;;16.60;99.90;;;;;;8419985;28;20300;-70
2023/08/02 05:18:11;;;;;;;;;;;16.60;99.90;;;;;;8427875;28;19950;-70
2023/08/02 05:22:12;;;;;;;;;;;16.60;99.90;;;;;;8419766;28;19928;-70
2023/08/02 05:26:14;;;;;;;;;;;16.60;99.90;;;;;;8399079;28;19924;-70
2023/08/02 05:30:15;;;;;;;;;;;16.60;99.90;;;;;;8411443;28;19928;-70
2023/08/02 05:34:17;;;;;;;;;;;16.70;99.90;;;;;;8418278;28;19924;-70
2023/08/02 05:38:19;;;;;;;;;;;16.70;99.90;;;;;;8418611;28;19935;-70
2023/08/02 05:42:21;;;;;;;;;;;16.70;99.90;;;;;;8426383;28;19978;-70
2023/08/02 05:46:23;;;;;;;;;;;16.60;99.90;;;;;;8422878;28;19950;-70
2023/08/02 05:50:25;;;;;;;;;;;16.60;99.90;;;;;;8426163;28;19931;-71
2023/08/02 05:54:26;;;;;;;;;;;16.60;99.90;;;;;;8429692;28;19931;-70
2023/08/02 05:58:28;;;;;;;;;;;16.60;99.90;;;;;;8414374;28;19931;-71
2023/08/02 06:07:33;;;;;;;;;;;16.50;99.90;;;;;;8417141;28;19935;-71
2023/08/02 06:11:35;;;;;;;;;;;16.50;99.90;;;;;;8421754;28;19931;-70
2023/08/02 06:15:36;;;;;;;;;;;16.50;99.90;;;;;;8408609;28;19946;-70
2023/08/02 06:19:39;;;;;;;;;;;16.50;99.90;;;;;;8421874;28;19924;-70
2023/08/02 06:23:40;;;;;;;;;;;16.50;99.90;;;;;;8417682;28;19928;-70
2023/08/02 06:27:42;;;;;;;;;;;16.50;99.90;;;;;;8404517;28;20452;-70
2023/08/02 06:31:44;;;;;;;;;;;16.50;99.90;;;;;;8425674;28;19931;-70
2023/08/02 06:35:46;;;;;;;;;;;16.40;99.90;;;;;;8426568;28;20015;-71
2023/08/02 06:39:47;;;;;;;;;;;16.40;99.90;;;;;;8421069;28;19979;-71
2023/08/02 06:43:49;;;;;;;;;;;16.50;99.90;;;;;;8418341;28;19925;-71
2023/08/02 06:47:51;;;;;;;;;;;16.50;99.90;;;;;;8397528;28;20276;-70
2023/08/02 06:57:22;;;;;;;;;;;16.50;99.90;;;;;;8422388;28;20439;-70
2023/08/02 07:11:48;;;;;;;;;;;16.50;99.90;;;;;;8427758;28;19922;-71
2023/08/02 07:31:05;;;;;;;;;;;16.50;99.90;;;;;;8421299;28;19919;-71
2023/08/02 07:35:07;;;;;;;;;;;16.60;99.90;;;;;;8424677;28;20391;-72
2023/08/02 07:39:09;;;;;;;;;;;16.60;99.90;;;;;;8429533;28;20359;-71
2023/08/02 07:43:10;;;;;;;;;;;16.60;99.90;;;;;;8428528;28;19939;-71
2023/08/02 07:47:12;;;;;;;;;;;16.60;99.90;;;;;;8429343;28;19928;-71
2023/08/02 07:51:14;;;;;;;;;;;16.60;99.90;;;;;;8407717;28;19924;-71
2023/08/02 07:55:15;;;;;;;;;;;16.60;99.90;;;;;;8419152;28;19928;-70
2023/08/02 07:59:17;;;;;;;;;;;16.60;99.90;;;;;;8403756;28;19924;-71
2023/08/02 08:03:19;;;;;;;;;;;16.60;99.90;;;;;;8431804;28;19932;-71
2023/08/02 08:07:20;;;;;;;;;;;16.70;99.90;;;;;;8421995;28;19928;-71
2023/08/02 08:11:25;;;;;;;;;;;16.70;99.90;;;;;;8408199;28;19981;-71
2023/08/02 08:15:27;;;;;;;;;;;16.70;99.90;;;;;;8424320;28;20303;-71
2023/08/02 08:19:31;;;;;;;;;;;16.70;99.90;;;;;;8424044;28;19931;-71
2023/08/02 08:28:36;;;;;;;;;;;16.80;99.90;;;;;;8428540;28;19920;-71
2023/08/02 08:32:38;;;;;;;;;;;16.70;99.90;;;;;;8413377;28;19928;-70
2023/08/02 08:36:40;;;;;;;;;;;16.70;99.90;;;;;;8397988;28;19924;-71
2023/08/02 08:40:41;;;;;;;;;;;16.80;99.90;;;;;;8402769;28;19928;-70
2023/08/02 08:44:43;;;;;;;;;;;16.80;99.90;;;;;;8400244;28;19924;-71
2023/08/02 08:48:45;;;;;;;;;;;16.90;99.90;;;;;;8403687;28;19974;-71
2023/08/02 08:52:47;;;;;;;;;;;16.90;99.90;;;;;;8408630;28;19928;-70
2023/08/02 08:56:49;;;;;;;;;;;17.00;99.90;;;;;;8427182;28;19954;-71
2023/08/02 09:00:52;;;;;;;;;;;17.00;99.90;;;;;;8427266;28;19924;-71
2023/08/02 09:04:55;;;;;;;;;;;17.10;99.90;;;;;;8411448;28;19928;-71
2023/08/02 09:08:56;;;;;;;;;;;17.20;99.90;;;;;;8429062;28;20336;-71
2023/08/02 09:12:58;;;;;;;;;;;17.30;99.90;;;;;;8415956;28;19924;-71
2023/08/02 09:17:01;;;;;;;;;;;17.40;99.90;;;;;;8400801;28;20398;-71
2023/08/02 09:21:03;;;;;;;;;;;17.50;99.90;;;;;;8407247;28;19924;-71
2023/08/02 09:25:07;;;;;;;;;;;17.70;99.90;;;;;;8416313;28;19924;-71
2023/08/02 09:29:09;;;;;;;;;;;17.80;99.90;;;;;;8409539;28;19924;-71
2023/08/02 09:33:11;;;;;;;;;;;17.90;99.90;;;;;;8428073;28;19935;-71
2023/08/02 09:37:14;;;;;;;;;;;18.00;99.90;;;;;;8410352;28;20045;-71
2023/08/02 09:41:22;;;;;;;;;;;18.10;99.90;;;;;;8398817;28;19924;-71
2023/08/02 09:45:44;;;;;;;;;;;18.10;99.90;;;;;;8403257;28;20051;-71
2023/08/02 09:50:01;;;;;;;;;;;18.20;99.90;;;;;;8421179;28;19928;-71
2023/08/02 09:54:02;;;;;;;;;;;18.20;99.90;;;;;;8404166;28;20338;-72
2023/08/02 09:58:04;;;;;;;;;;;18.30;99.90;;;;;;8423439;28;19931;-71
2023/08/02 10:02:06;;;;;;;;;;;18.30;99.90;;;;;;8426896;28;20358;-71
2023/08/02 10:06:08;;;;;;;;;;;18.40;99.90;;;;;;8408371;28;19946;-72
2023/08/02 10:10:15;;;;;;;;;;;18.50;99.90;;;;;;8421837;28;19925;-71
2023/08/02 10:14:17;;;;;;;;;;;18.60;99.90;;;;;;8422714;28;20318;-71
2023/08/02 10:18:19;;;;;;;;;;;18.80;99.90;;;;;;8425658;28;19932;-71
2023/08/02 10:27:25;;;;;;;;;;;19.30;99.90;;;;;;8418115;28;19962;-72
2023/08/02 10:31:26;;;;;;;;;;;19.60;99.90;;;;;;8421889;28;20387;-71
2023/08/02 10:35:47;;;;;;;;;;;19.80;99.90;;;;;;8401094;28;20497;-72
2023/08/02 10:39:48;;;;;;;;;;;19.90;99.90;;;;;;8422900;28;19924;-72
2023/08/02 10:43:53;;;;;;;;;;;20.10;99.90;;;;;;8420649;28;19977;-71
2023/08/02 10:48:15;;;;;;;;;;;20.10;99.90;;;;;;8419857;28;20474;-71
2023/08/02 10:52:29;;;;;;;;;;;20.20;99.90;;;;;;8420124;28;19928;-71
2023/08/02 10:56:30;;;;;;;;;;;20.30;99.90;;;;;;8399741;28;19924;-71
2023/08/02 11:00:34;;;;;;;;;;;20.50;99.90;;;;;;8398464;28;19924;-71
2023/08/02 11:04:37;;;;;;;;;;;20.60;99.90;;;;;;8404476;28;19931;-71
2023/08/02 11:08:46;;;;;;;;;;;20.60;99.90;;;;;;8421829;28;19996;-71
2023/08/02 11:12:51;;;;;;;;;;;20.60;99.90;;;;;;8417845;28;19928;-71
2023/08/02 11:16:53;;;;;;;;;;;20.50;99.90;;;;;;8393980;28;20367;-71
2023/08/02 11:21:05;;;;;;;;;;;20.50;99.90;;;;;;8405765;28;19924;-71
2023/08/02 11:25:07;;;;;;;;;;;20.70;99.90;;;;;;8410875;28;19924;-71
2023/08/02 11:29:09;;;;;;;;;;;20.80;99.90;;;;;;8425359;28;19963;-71
2023/08/02 11:33:11;;;;;;;;;;;20.80;99.90;;;;;;8423716;28;19928;-71
2023/08/02 11:37:15;;;;;;;;;;;20.80;99.90;;;;;;8420348;28;19929;-70
2023/08/02 11:41:20;;;;;;;;;;;20.90;99.90;;;;;;8413813;28;19928;-70
2023/08/02 11:45:32;;;;;;;;;;;21.00;99.90;;;;;;8424732;28;19932;-71
2023/08/02 11:49:46;;;;;;;;;;;20.90;99.90;;;;;;8400078;28;19931;-71
2023/08/02 11:53:49;;;;;;;;;;;20.90;99.90;;;;;;8424307;28;19924;-71
2023/08/02 11:57:51;;;;;;;;;;;20.80;99.90;;;;;;8423466;28;19924;-70
2023/08/02 12:01:53;;;;;;;;;;;20.80;99.90;;;;;;8422577;28;20371;-71
2023/08/02 12:05:59;;;;;;;;;;;21.00;99.90;;;;;;8409320;28;19982;-71
2023/08/02 12:10:04;;;;;;;;;;;21.00;99.90;;;;;;8425386;28;19978;-71
2023/08/02 12:14:06;;;;;;;;;;;20.90;99.90;;;;;;8405645;28;19924;-71
2023/08/02 12:18:08;;;;;;;;;;;20.90;99.90;;;;;;8409793;28;19930;-71
2023/08/02 12:22:09;;;;;;;;;;;21.00;99.90;;;;;;8417765;28;19924;-70
2023/08/02 12:26:11;;;;;;;;;;;21.10;99.90;;;;;;8416770;28;20304;-71
2023/08/02 12:30:16;;;;;;;;;;;21.30;99.90;;;;;;8411218;28;19928;-71
2023/08/02 12:34:18;;;;;;;;;;;21.50;99.90;;;;;;8407898;28;19924;-70
2023/08/02 12:38:19;;;;;;;;;;;21.60;99.90;;;;;;8429152;28;19924;-70
2023/08/02 12:42:21;;;;;;;;;;;21.60;99.90;;;;;;8429041;28;20338;-70
2023/08/02 12:46:23;;;;;;;;;;;21.50;99.90;;;;;;8422619;28;19924;-71
2023/08/02 12:50:24;;;;;;;;;;;21.60;99.90;;;;;;8422092;28;19924;-72
2023/08/02 12:54:29;;;;;;;;;;;21.60;99.90;;;;;;8406039;28;19931;-70
2023/08/02 12:58:30;;;;;;;;;;;21.70;99.90;;;;;;8400912;28;20388;-71
2023/08/02 13:02:32;;;;;;;;;;;21.80;99.90;;;;;;8386548;28;19931;-71
2023/08/02 13:06:34;;;;;;;;;;;21.80;99.90;;;;;;8395447;28;20397;-70
2023/08/02 13:10:43;;;;;;;;;;;21.80;99.90;;;;;;8400189;28;19928;-70
2023/08/02 13:14:45;;;;;;;;;;;21.70;99.90;;;;;;8404385;28;20461;-70
2023/08/02 13:18:47;;;;;;;;;;;21.70;99.90;;;;;;8379035;28;19950;-70
2023/08/02 13:22:49;;;;;;;;;;;21.80;99.90;;;;;;8389866;28;19982;-70
2023/08/02 13:26:50;;;;;;;;;;;21.90;99.90;;;;;;8394608;28;19928;-70
2023/08/02 13:30:58;;;;;;;;;;;22.10;99.90;;;;;;8401624;28;19932;-70
2023/08/02 13:35:00;;;;;;;;;;;22.10;99.90;;;;;;8386941;28;19924;-71
2023/08/02 13:39:03;;;;;;;;;;;22.10;99.90;;;;;;8400316;28;19967;-70
2023/08/02 13:43:04;;;;;;;;;;;22.00;99.90;;;;;;8397669;28;20014;-71
2023/08/02 13:47:06;;;;;;;;;;;22.00;99.90;;;;;;8398826;28;20356;-70
2023/08/02 13:51:08;;;;;;;;;;;21.90;99.90;;;;;;8402288;28;19931;-70
2023/08/02 13:55:09;;;;;;;;;;;21.80;99.90;;;;;;8401535;28;20364;-71
2023/08/02 13:59:11;;;;;;;;;;;21.70;99.90;;;;;;8402815;28;19924;-70
2023/08/02 14:03:13;;;;;;;;;;;21.60;99.90;;;;;;8401277;28;20417;-70
2023/08/02 14:07:14;;;;;;;;;;;21.50;99.90;;;;;;8381382;28;19924;-71
2023/08/02 14:11:16;;;;;;;;;;;21.40;99.90;;;;;;8402345;28;20327;-70
2023/08/02 14:15:18;;;;;;;;;;;21.30;99.90;;;;;;8403863;28;19928;-70
2023/08/02 14:19:19;;;;;;;;;;;21.20;99.90;;;;;;8382468;28;20292;-70
2023/08/02 14:33:27;;;;;;;;;;;21.30;99.90;;;;;;8400986;28;19923;-70
2023/08/02 14:37:29;;;;;;;;;;;21.40;99.90;;;;;;8393148;28;19978;-70
2023/08/02 14:41:31;;;;;;;;;;;21.30;99.90;;;;;;8405078;28;19941;-70
2023/08/02 14:51:03;;;;;;;;;;;21.00;99.90;;;;;;8398348;28;20314;-70
2023/08/02 14:55:05;;;;;;;;;;;20.90;99.90;;;;;;8404234;28;19933;-70
2023/08/02 14:59:07;;;;;;;;;;;20.70;99.90;;;;;;8398159;28;19925;-70
2023/08/02 15:03:08;;;;;;;;;;;20.60;99.90;;;;;;8396267;28;19928;-70
2023/08/02 15:07:12;;;;;;;;;;;20.50;99.90;;;;;;8381674;28;20306;-70
2023/08/02 15:21:45;;;;;;;;;;;20.20;99.90;;;;;;8397982;28;20028;-71
2023/08/02 15:25:47;;;;;;;;;;;20.10;99.90;;;;;;8396553;28;20389;-70
2023/08/02 15:29:48;;;;;;;;;;;20.00;99.90;;;;;;8408738;28;19974;-70
2023/08/02 15:33:51;;;;;;;;;;;19.90;99.90;;;;;;8404888;28;19970;-70
2023/08/02 15:37:52;;;;;;;;;;;19.70;99.90;;;;;;8401425;28;19925;-70
2023/08/02 15:41:54;;;;;;;;;;;19.50;99.90;;;;;;8392033;28;20399;-70
2023/08/02 15:45:56;;;;;;;;;;;19.40;99.90;;;;;;8407902;28;19928;-70
2023/08/02 15:49:58;;;;;;;;;;;19.30;99.90;;;;;;8408975;28;20306;-70
2023/08/02 15:53:59;;;;;;;;;;;19.10;99.90;;;;;;8403116;28;19944;-71
2023/08/02 15:58:01;;;;;;;;;;;19.10;99.90;;;;;;8406658;28;19924;-70
2023/08/02 16:02:03;;;;;;;;;;;19.10;99.90;;;;;;8390975;28;19932;-70
2023/08/02 16:06:08;;;;;;;;;;;19.20;99.90;;;;;;8404948;28;19954;-71
2023/08/02 16:10:10;;;;;;;;;;;19.20;99.90;;;;;;8395731;28;19931;-71
2023/08/02 16:14:12;;;;;;;;;;;19.20;99.90;;;;;;8396259;28;20220;-71
2023/08/02 16:18:13;;;;;;;;;;;19.20;99.90;;;;;;8400396;28;19997;-71
2023/08/02 16:22:16;;;;;;;;;;;19.30;99.90;;;;;;8399234;28;19932;-71
2023/08/02 16:31:22;;;;;;;;;;;19.90;99.90;;;;;;8403646;28;19919;-71
2023/08/02 16:35:23;;;;;;;;;;;19.90;99.90;;;;;;8405153;28;19939;-71
2023/08/02 16:39:25;;;;;;;;;;;19.90;99.90;;;;;;8402570;28;19924;-71
2023/08/02 16:43:27;;;;;;;;;;;19.90;99.90;;;;;;8400354;28;20384;-71
2023/08/02 16:47:28;;;;;;;;;;;19.90;99.90;;;;;;8401766;28;19947;-70
2023/08/02 16:51:30;;;;;;;;;;;19.70;99.90;;;;;;8407332;28;19932;-70
2023/08/02 16:55:32;;;;;;;;;;;19.70;99.90;;;;;;8401299;28;19931;-71
2023/08/02 16:59:34;;;;;;;;;;;19.60;99.90;;;;;;8402369;28;20597;-71
2023/08/02 17:03:36;;;;;;;;;;;19.60;99.90;;;;;;8402869;28;20346;-71
2023/08/02 17:07:37;;;;;;;;;;;19.70;99.90;;;;;;8384274;28;19970;-71
2023/08/02 17:11:39;;;;;;;;;;;19.70;99.90;;;;;;8400084;28;19970;-71
2023/08/02 17:15:41;;;;;;;;;;;19.70;99.90;;;;;;8395422;28;19936;-70
2023/08/02 17:19:43;;;;;;;;;;;19.70;99.90;;;;;;8383396;28;19924;-70
2023/08/02 17:23:44;;;;;;;;;;;19.70;99.90;;;;;;8402440;28;19924;-71
2023/08/02 17:27:46;;;;;;;;;;;19.60;99.90;;;;;;8390035;28;19931;-71
2023/08/02 17:32:13;;;;;;;;;;;19.60;99.90;;;;;;8402079;28;19932;-71
2023/08/02 17:36:14;;;;;;;;;;;19.70;99.90;;;;;;8402411;28;19954;-71
2023/08/02 17:40:16;;;;;;;;;;;19.70;99.90;;;;;;8406892;28;20383;-71
2023/08/02 17:44:18;;;;;;;;;;;19.60;99.90;;;;;;8400893;28;20292;-71
2023/08/02 17:48:19;;;;;;;;;;;19.60;99.90;;;;;;8389795;28;19979;-70
2023/08/02 17:52:21;;;;;;;;;;;19.50;99.90;;;;;;8383735;28;19936;-71
2023/08/02 17:56:23;;;;;;;;;;;19.40;99.90;;;;;;8398363;28;19924;-71
2023/08/02 18:10:32;;;;;;;;;;;19.30;99.90;;;;;;8403345;28;19935;-71
2023/08/02 18:14:33;;;;;;;;;;;19.30;99.90;;;;;;8403256;28;20430;-70
2023/08/02 18:18:39;;;;;;;;;;;19.30;99.90;;;;;;8400139;28;19929;-71
2023/08/02 18:22:43;;;;;;;;;;;19.30;99.90;;;;;;8384480;28;19928;-70
2023/08/02 18:36:45;;;;;;;;;;;19.40;99.90;;;;;;8406085;28;19978;-70
2023/08/02 18:40:46;;;;;;;;;;;19.30;99.90;;;;;;8403085;28;19924;-71
2023/08/02 18:44:48;;;;;;;;;;;19.30;99.90;;;;;;8397401;28;19951;-70
2023/08/02 18:48:52;;;;;;;;;;;19.10;99.90;;;;;;8395090;28;19947;-71
2023/08/02 18:52:53;;;;;;;;;;;18.70;99.90;;;;;;8383923;28;19928;-71
2023/08/02 18:56:55;;;;;;;;;;;18.30;99.90;;;;;;8400843;28;19932;-71
2023/08/02 19:00:57;;;;;;;;;;;18.10;99.90;;;;;;8404340;28;19931;-71
2023/08/02 19:04:59;;;;;;;;;;;18.00;99.90;;;;;;8409603;28;19977;-71
2023/08/02 19:09:01;;;;;;;;;;;18.00;99.90;;;;;;8405433;28;19925;-71
2023/08/02 19:13:03;;;;;;;;;;;17.90;99.90;;;;;;8403263;28;19932;-71
2023/08/02 19:17:05;;;;;;;;;;;17.90;99.90;;;;;;8408347;28;20525;-70
2023/08/02 19:21:08;;;;;;;;;;;18.00;99.90;;;;;;8407080;28;19947;-71
2023/08/02 19:25:10;;;;;;;;;;;18.00;99.90;;;;;;8405866;28;19932;-71
2023/08/02 19:29:18;;;;;;;;;;;18.00;99.90;;;;;;8407445;28;19982;-71
2023/08/02 19:33:19;;;;;;;;;;;17.90;99.90;;;;;;8398122;28;19955;-71
2023/08/02 19:37:26;;;;;;;;;;;17.90;99.90;;;;;;8412597;28;19924;-71
2023/08/02 19:41:29;;;;;;;;;;;17.80;99.90;;;;;;8406075;28;19924;-71
2023/08/02 19:45:30;;;;;;;;;;;17.80;99.90;;;;;;8391769;28;20395;-71
2023/08/02 19:49:32;;;;;;;;;;;17.80;99.90;;;;;;8388577;28;20304;-71
2023/08/02 19:53:35;;;;;;;;;;;17.80;99.90;;;;;;8407856;28;20415;-71
2023/08/02 19:57:41;;;;;;;;;;;17.80;99.90;;;;;;8395748;28;19924;-71
2023/08/02 20:01:52;;;;;;;;;;;17.80;99.90;;;;;;8402542;28;19963;-71
2023/08/02 20:10:59;;;;;;;;;;;17.80;99.90;;;;;;8402701;28;19920;-71
2023/08/02 20:30:13;;;;;;;;;;;17.80;99.90;;;;;;8397070;28;19923;-71
2023/08/02 20:34:14;;;;;;;;;;;17.80;99.90;;;;;;8409282;28;19931;-71
2023/08/02 20:38:16;;;;;;;;;;;17.80;99.90;;;;;;8399456;28;20383;-71
2023/08/02 20:42:18;;;;;;;;;;;17.90;99.90;;;;;;8388596;28;19924;-70
2023/08/02 20:46:21;;;;;;;;;;;17.80;99.90;;;;;;8401900;28;19928;-71
2023/08/02 20:50:23;;;;;;;;;;;17.80;99.90;;;;;;8399655;28;19936;-70
2023/08/02 20:54:25;;;;;;;;;;;17.80;99.90;;;;;;8399804;28;19990;-70
2023/08/02 20:58:26;;;;;;;;;;;17.80;99.90;;;;;;8417106;28;20558;-71
2023/08/02 21:02:28;;;;;;;;;;;17.80;99.90;;;;;;8413676;28;19924;-70
2023/08/02 21:06:30;;;;;;;;;;;17.80;99.90;;;;;;8407941;28;20383;-71
2023/08/02 21:10:32;;;;;;;;;;;17.80;99.90;;;;;;8427295;28;19932;-71
2023/08/02 21:14:34;;;;;;;;;;;17.80;99.90;;;;;;8428221;28;19993;-71
2023/08/02 21:18:36;;;;;;;;;;;17.90;99.90;;;;;;8424904;28;19978;-71
2023/08/02 21:22:37;;;;;;;;;;;17.90;99.90;;;;;;8424151;28;19925;-71
2023/08/02 21:26:39;;;;;;;;;;;17.90;99.90;;;;;;8419732;28;19977;-71
2023/08/02 21:30:42;;;;;;;;;;;17.80;99.90;;;;;;8423450;28;19947;-71
2023/08/02 21:34:43;;;;;;;;;;;17.80;99.90;;;;;;8423146;28;19961;-71
2023/08/02 21:38:45;;;;;;;;;;;17.80;99.90;;;;;;8416317;28;19932;-71
2023/08/02 21:42:47;;;;;;;;;;;17.80;99.90;;;;;;8408170;28;19950;-71
2023/08/02 21:46:48;;;;;;;;;;;17.70;99.90;;;;;;8403106;28;19924;-71
2023/08/02 21:50:50;;;;;;;;;;;17.70;99.90;;;;;;8425831;28;19924;-71
2023/08/02 21:54:52;;;;;;;;;;;17.60;99.90;;;;;;8428128;28;19930;-70
2023/08/02 21:58:55;;;;;;;;;;;17.50;99.90;;;;;;8404706;28;19924;-71
2023/08/02 22:02:59;;;;;;;;;;;17.50;99.90;;;;;;8422483;28;19928;-70
2023/08/02 22:07:01;;;;;;;;;;;17.40;99.90;;;;;;8422904;28;19924;-71
2023/08/02 22:11:04;;;;;;;;;;;17.30;99.90;;;;;;8420485;28;19924;-71
2023/08/02 22:15:07;;;;;;;;;;;17.20;99.90;;;;;;8406033;28;20300;-71
2023/08/02 22:19:09;;;;;;;;;;;17.20;99.90;;;;;;8423573;28;19928;-71
2023/08/02 22:23:11;;;;;;;;;;;17.20;99.90;;;;;;8396952;28;20299;-70
2023/08/02 22:27:13;;;;;;;;;;;17.20;99.90;;;;;;8423907;28;19931;-71
2023/08/02 22:31:14;;;;;;;;;;;17.20;99.90;;;;;;8425251;28;20294;-71
2023/08/02 22:35:16;;;;;;;;;;;17.30;99.90;;;;;;8425129;28;19924;-71
2023/08/02 22:39:18;;;;;;;;;;;17.20;99.90;;;;;;8427613;28;19931;-71
2023/08/02 22:43:19;;;;;;;;;;;17.20;99.90;;;;;;8404636;28;20276;-71
2023/08/02 22:47:21;;;;;;;;;;;17.20;99.90;;;;;;8400828;28;20486;-71
2023/08/02 22:51:24;;;;;;;;;;;17.20;99.90;;;;;;8405827;28;19931;-71
2023/08/02 22:55:25;;;;;;;;;;;17.20;99.90;;;;;;8405837;28;20394;-71
2023/08/02 22:59:27;;;;;;;;;;;17.00;99.90;;;;;;8420533;28;19978;-71
2023/08/02 23:03:42;;;;;;;;;;;17.00;99.90;;;;;;8414472;28;19924;-71
2023/08/02 23:27:59;;;;;;;;;;;17.00;99.90;;;;;;8413317;28;20410;-71
2023/08/02 23:32:01;;;;;;;;;;;16.90;99.90;;;;;;8413090;28;19925;-71
2023/08/02 23:36:02;;;;;;;;;;;16.90;99.90;;;;;;8422561;28;19924;-71
2023/08/02 23:40:04;;;;;;;;;;;16.90;99.90;;;;;;8420524;28;19931;-71
2023/08/02 23:44:06;;;;;;;;;;;16.90;99.90;;;;;;8423817;28;19947;-71
2023/08/02 23:48:08;;;;;;;;;;;16.90;99.90;;;;;;8413581;28;19935;-71
2023/08/02 23:52:10;;;;;;;;;;;16.90;99.90;;;;;;8412225;28;19977;-71
2023/08/02 23:56:12;;;;;;;;;;;16.90;99.90;;;;;;8423283;28;19935;-71
